Time;durP1;ratioP1;P1;durP2;ratioP2;P2;SDS_P1;SDS_P2;PMS_P1;PMS_P2;Temp;Humidity;BMP_temperature;BMP_pressure;BME280_temperature;BME280_humidity;BME280_pressure;Samples;Min_cycle;Max_cycle;Signal;HPM_P1;HPM_P2
2021/12/10 00:01:50;;;;;;;53.10;17.95;;;;;;;2.36;92.10;99803.28;5075177;28;20117;-77
2021/12/10 00:04:19;;;;;;;48.65;17.88;;;;;;;2.37;92.25;99788.72;5043169;28;20291;-77
2021/12/10 00:06:53;;;;;;;40.40;15.53;;;;;;;2.40;91.93;99787.16;5042961;28;20025;-77
2021/12/10 00:09:26;;;;;;;47.42;15.90;;;;;;;2.44;92.07;99780.41;5043778;28;20510;-77
2021/12/10 00:12:12;;;;;;;44.75;16.25;;;;;;;2.44;91.95;99765.00;5043292;28;20025;-77
2021/12/10 00:14:38;;;;;;;41.83;16.00;;;;;;;2.46;91.55;99765.91;5037451;28;20315;-77
2021/12/10 00:17:07;;;;;;;41.60;16.10;;;;;;;2.48;91.86;99764.31;5075595;28;20044;-77
2021/12/10 00:19:45;;;;;;;41.70;14.63;;;;;;;2.50;91.30;99748.94;5042798;28;20052;-77
2021/12/10 00:22:15;;;;;;;39.22;14.02;;;;;;;2.52;91.11;99749.84;5039453;28;20023;-77
2021/12/10 00:24:43;;;;;;;37.92;13.55;;;;;;;2.54;91.07;99741.38;5041392;28;20041;-77
2021/12/10 00:27:09;;;;;;;35.58;13.75;;;;;;;2.55;90.65;99734.53;5041553;28;20033;-78
2021/12/10 00:29:41;;;;;;;37.58;13.63;;;;;;;2.58;90.62;99738.13;5038422;28;20048;-77
2021/12/10 00:32:17;;;;;;;33.97;13.68;;;;;;;2.63;90.38;99732.28;5041098;28;20052;-77
2021/12/10 00:34:47;;;;;;;35.88;13.80;;;;;;;2.63;90.18;99716.84;5039705;28;20025;-77
2021/12/10 00:37:14;;;;;;;35.50;12.82;;;;;;;2.64;89.73;99708.31;5042408;28;20045;-77
2021/12/10 00:39:43;;;;;;;37.55;13.25;;;;;;;2.60;89.83;99708.19;5042661;28;20029;-77
2021/12/10 00:42:14;;;;;;;32.22;11.95;;;;;;;2.63;89.97;99706.56;5034982;28;20010;-77
2021/12/10 00:44:40;;;;;;;30.77;12.30;;;;;;;2.60;89.88;99690.19;5042409;28;20072;-77
2021/12/10 00:47:06;;;;;;;31.65;12.10;;;;;;;2.62;89.39;99685.09;5041783;28;20045;-77
2021/12/10 00:49:32;;;;;;;33.15;11.23;;;;;;;2.61;88.94;99678.22;5041077;28;20088;-77
2021/12/10 00:51:58;;;;;;;24.45;11.02;;;;;;;2.63;89.22;99681.72;5041697;28;20048;-77
2021/12/10 00:54:23;;;;;;;31.35;11.05;;;;;;;2.60;88.93;99677.31;5042135;28;20075;-77
2021/12/10 00:56:49;;;;;;;26.48;10.98;;;;;;;2.57;89.20;99669.50;5067177;28;20025;-77
2021/12/10 00:59:17;;;;;;;26.38;9.73;;;;;;;2.55;89.06;99655.72;5039936;28;20025;-77
2021/12/10 01:01:43;;;;;;;30.25;11.00;;;;;;;2.55;89.05;99650.59;5041175;28;20020;-77
2021/12/10 01:04:14;;;;;;;28.75;10.25;;;;;;;2.53;88.75;99654.78;5041757;28;20052;-77
2021/12/10 01:06:43;;;;;;;28.23;9.52;;;;;;;2.53;88.86;99643.63;5039207;28;20282;-77
2021/12/10 01:09:11;;;;;;;;;;;;;;;2.55;89.81;99630.00;5040953;28;20017;-77
2021/12/10 01:11:43;;;;;;;31.73;9.70;;;;;;;2.52;89.39;99622.19;5041752;28;19909;-77
2021/12/10 01:14:20;;;;;;;28.27;9.80;;;;;;;2.50;88.87;99616.09;5071107;28;20132;-77
2021/12/10 01:25:13;;;;;;;29.30;10.20;;;;;;;2.48;88.99;99586.91;5039809;28;21079;-77
2021/12/10 01:27:43;;;;;;;23.35;9.45;;;;;;;2.47;88.73;99581.72;5073575;28;20045;-77
2021/12/10 01:30:08;;;;;;;26.10;10.13;;;;;;;2.43;89.10;99576.47;5040911;28;20045;-77
2021/12/10 01:32:40;;;;;;;28.17;10.43;;;;;;;2.42;88.84;99572.13;5038875;28;20632;-77
2021/12/10 01:35:09;;;;;;;30.17;10.32;;;;;;;2.40;89.23;99563.50;5041706;28;20045;-77
2021/12/10 01:37:35;;;;;;;24.63;10.20;;;;;;;2.39;89.06;99551.47;5036565;28;20343;-77
2021/12/10 01:40:00;;;;;;;30.95;11.15;;;;;;;2.39;89.31;99540.28;5040094;28;20087;-77
2021/12/10 01:44:55;;;;;;;29.33;10.57;;;;;;;2.37;89.17;99536.78;5041578;28;20173;-77
2021/12/10 01:47:30;;;;;;;29.73;9.98;;;;;;;2.35;89.36;99541.88;5069167;28;20074;-77
2021/12/10 01:49:55;;;;;;;25.70;9.63;;;;;;;2.34;89.19;99536.69;5041956;28;20272;-77
2021/12/10 01:52:21;;;;;;;28.52;10.52;;;;;;;2.34;88.98;99529.84;5041500;28;20044;-77
2021/12/10 01:54:52;;;;;;;30.35;9.85;;;;;;;2.34;89.47;99531.56;5048085;28;20219;-77
2021/12/10 01:57:20;;;;;;;25.33;9.95;;;;;;;2.33;89.25;99527.22;5074534;28;20018;-77
2021/12/10 01:59:47;;;;;;;26.60;9.93;;;;;;;2.31;89.31;99522.03;5044604;28;20033;-77
2021/12/10 02:02:19;;;;;;;25.65;9.73;;;;;;;2.29;89.47;99517.66;5044565;28;20022;-77
2021/12/10 02:04:46;;;;;;;30.30;9.20;;;;;;;2.26;89.12;99516.72;5042293;28;20049;-77
2021/12/10 02:07:18;;;;;;;22.45;9.00;;;;;;;2.26;89.43;99515.88;5044556;28;20062;-77
2021/12/10 02:09:43;;;;;;;25.00;9.02;;;;;;;2.25;89.65;99512.41;5045714;28;20037;-77
2021/12/10 02:12:09;;;;;;;27.77;9.93;;;;;;;2.24;89.68;99504.66;5045458;28;20033;-77
2021/12/10 02:14:34;;;;;;;28.10;9.38;;;;;;;2.22;89.32;99491.75;5045312;28;20279;-77
2021/12/10 02:17:00;;;;;;;26.52;9.02;;;;;;;2.21;89.07;99487.41;5045265;28;20136;-77
2021/12/10 02:19:28;;;;;;;30.48;10.65;;;;;;;2.21;89.29;99487.41;5043724;28;20026;-77
2021/12/10 02:21:54;;;;;;;23.27;8.38;;;;;;;2.21;89.22;99478.84;5044789;28;20033;-77
2021/12/10 02:24:20;;;;;;;22.13;8.50;;;;;;;2.20;89.14;99477.97;5041554;28;20028;-77
2021/12/10 02:26:52;;;;;;;22.15;8.63;;;;;;;2.19;89.31;99468.50;5044821;28;20037;-77
2021/12/10 02:29:21;;;;;;;25.27;8.00;;;;;;;2.21;88.99;99456.56;5040726;28;20072;-77
2021/12/10 02:31:47;;;;;;;;;;;;;;;2.25;89.41;99449.88;5076330;28;20029;-78
2021/12/10 02:34:13;;;;;;;19.27;6.35;;;;;;;2.22;88.84;99449.75;5042384;28;19916;-77
2021/12/10 02:36:42;;;;;;;18.50;6.88;;;;;;;2.22;88.90;99442.06;5043315;28;20014;-77
2021/12/10 02:39:09;;;;;;;14.07;6.38;;;;;;;2.21;88.62;99430.88;5038191;28;20087;-77
2021/12/10 02:41:35;;;;;;;16.92;6.57;;;;;;;2.21;88.62;99425.75;5044184;28;20038;-77
2021/12/10 02:44:02;;;;;;;15.30;6.40;;;;;;;2.21;88.86;99419.75;5042885;28;20228;-77
2021/12/10 02:46:29;;;;;;;18.52;6.80;;;;;;;2.22;88.56;99417.22;5072815;28;20024;-77
2021/12/10 02:48:55;;;;;;;15.45;6.57;;;;;;;2.23;88.88;99410.38;5043330;28;20021;-77
2021/12/10 02:51:22;;;;;;;19.13;5.90;;;;;;;2.23;88.80;99413.84;5044810;28;20219;-77
2021/12/10 02:53:48;;;;;;;17.63;6.05;;;;;;;2.22;88.91;99406.94;5044627;28;20071;-77
2021/12/10 02:56:20;;;;;;;15.75;6.43;;;;;;;2.25;89.05;99403.59;5044152;28;20088;-77
2021/12/10 02:58:50;;;;;;;18.55;6.18;;;;;;;2.25;88.63;99401.91;5042455;28;20026;-77
2021/12/10 03:01:27;;;;;;;15.60;6.05;;;;;;;2.26;88.49;99397.66;5043852;28;20346;-77
2021/12/10 03:03:53;;;;;;;17.08;6.50;;;;;;;2.26;88.53;99395.94;5069092;28;20108;-77
2021/12/10 03:06:20;;;;;;;19.15;6.03;;;;;;;2.25;88.78;99388.19;5043870;28;20037;-77
2021/12/10 03:08:49;;;;;;;15.65;5.40;;;;;;;2.25;88.22;99383.91;5043171;28;20052;-77
2021/12/10 03:11:17;;;;;;;19.25;6.18;;;;;;;2.24;88.05;99371.88;5043759;28;20165;-78
2021/12/10 03:13:42;;;;;;;16.98;6.38;;;;;;;2.26;88.17;99374.53;5076296;28;20017;-77
2021/12/10 03:16:08;;;;;;;14.65;5.78;;;;;;;2.26;88.14;99371.94;5044328;28;20112;-77
2021/12/10 03:18:35;;;;;;;14.85;5.90;;;;;;;2.25;88.04;99358.22;5043642;28;20028;-77
2021/12/10 03:21:02;;;;;;;11.50;5.15;;;;;;;2.25;88.32;99360.78;5039762;28;20025;-77
2021/12/10 03:23:28;;;;;;;14.13;5.47;;;;;;;2.25;88.05;99358.22;5042889;28;20033;-77
2021/12/10 03:25:54;;;;;;;20.05;5.93;;;;;;;2.25;87.79;99357.34;5044004;28;20172;-77
2021/12/10 03:28:19;;;;;;;14.95;5.75;;;;;;;2.24;88.02;99348.75;5042286;28;20236;-77
2021/12/10 03:30:52;;;;;;;17.85;5.68;;;;;;;2.25;88.04;99347.06;5043842;28;20268;-77
2021/12/10 03:33:18;;;;;;;15.50;5.68;;;;;;;2.25;88.12;99342.78;5041719;28;20088;-77
2021/12/10 03:35:46;;;;;;;17.00;5.22;;;;;;;2.25;88.06;99342.78;5042129;28;20085;-77
2021/12/10 03:38:16;;;;;;;14.35;5.60;;;;;;;2.25;87.62;99334.22;5042864;28;20041;-77
2021/12/10 03:40:41;;;;;;;17.95;5.60;;;;;;;2.25;87.74;99329.09;5038831;28;20048;-77
2021/12/10 03:43:07;;;;;;;13.38;5.63;;;;;;;2.26;87.62;99328.28;5043573;28;20033;-77
2021/12/10 03:45:37;;;;;;;17.35;5.28;;;;;;;2.25;87.58;99319.66;5043462;28;20184;-77
2021/12/10 03:48:09;;;;;;;14.82;5.40;;;;;;;2.25;87.45;99319.66;5043686;28;20083;-77
2021/12/10 03:50:35;;;;;;;16.98;5.60;;;;;;;2.26;88.03;99311.13;5043700;28;20163;-77
2021/12/10 03:53:01;;;;;;;17.80;5.85;;;;;;;2.26;87.47;99321.41;5042720;28;20211;-77
2021/12/10 03:55:28;;;;;;;17.77;6.22;;;;;;;2.27;87.96;99317.13;5042695;28;20037;-77
2021/12/10 03:57:56;;;;;;;17.55;6.55;;;;;;;2.28;88.32;99303.47;5043032;28;20033;-78
2021/12/10 04:00:24;;;;;;;15.88;5.30;;;;;;;2.28;87.54;99307.75;5041616;28;20048;-77
2021/12/10 04:02:50;;;;;;;19.50;5.47;;;;;;;2.31;87.57;99297.56;5042061;28;20025;-77
2021/12/10 04:05:16;;;;;;;15.00;5.47;;;;;;;2.31;87.73;99302.72;5040515;28;20060;-77
2021/12/10 04:07:42;;;;;;;17.10;6.20;;;;;;;2.34;87.63;99300.22;5043176;28;20075;-77
2021/12/10 04:10:10;;;;;;;13.70;5.40;;;;;;;2.34;87.36;99292.53;5042127;28;20017;-77
2021/12/10 04:12:36;;;;;;;15.15;5.25;;;;;;;2.33;87.16;99285.63;5043073;28;20043;-77
2021/12/10 04:15:03;;;;;;;14.45;5.40;;;;;;;2.35;87.50;99284.00;5042874;28;20052;-77
2021/12/10 04:17:29;;;;;;;13.07;4.68;;;;;;;2.36;87.78;99275.44;5042856;28;20048;-77
2021/12/10 04:19:54;;;;;;;14.40;5.15;;;;;;;2.36;88.04;99273.75;5043029;28;20042;-77
2021/12/10 04:22:22;;;;;;;15.93;5.25;;;;;;;2.38;87.54;99266.09;5041658;28;20075;-77
2021/12/10 04:24:49;;;;;;;17.80;5.18;;;;;;;2.36;87.57;99255.78;5041920;28;20033;-77
2021/12/10 04:27:16;;;;;;;14.82;4.47;;;;;;;2.39;87.75;99252.41;5040098;28;20181;-78
2021/12/10 04:29:42;;;;;;;11.15;4.07;;;;;;;2.39;87.90;99249.81;5041613;28;20013;-77
2021/12/10 04:32:09;;;;;;;16.00;4.28;;;;;;;2.40;87.90;99236.16;5042366;28;20083;-77
2021/12/10 04:34:35;;;;;;;10.60;4.00;;;;;;;2.40;88.26;99238.72;5040921;28;20079;-77
2021/12/10 04:37:04;;;;;;;12.13;4.47;;;;;;;2.41;87.77;99228.50;5041798;28;20258;-77
2021/12/10 04:39:30;;;;;;;16.48;4.50;;;;;;;2.41;88.29;99220.78;5036966;28;20095;-77
2021/12/10 04:41:56;;;;;;;13.23;4.20;;;;;;;2.43;87.48;99210.53;5041370;28;20223;-77
2021/12/10 04:44:21;;;;;;;12.10;3.55;;;;;;;2.47;87.75;99202.09;5042046;28;20251;-77
2021/12/10 04:46:47;;;;;;;12.80;3.17;;;;;;;2.48;87.91;99198.72;5042453;28;20343;-77
2021/12/10 04:49:14;;;;;;;10.25;3.35;;;;;;;2.50;87.74;99191.91;5041891;28;20091;-78
2021/12/10 04:51:42;;;;;;;10.98;3.42;;;;;;;2.51;87.90;99188.50;5042249;28;20292;-78
2021/12/10 04:54:09;;;;;;;12.55;3.80;;;;;;;2.53;88.40;99180.84;5042054;28;20296;-78
2021/12/10 04:56:36;;;;;;;10.48;3.75;;;;;;;2.53;88.25;99185.97;5042150;28;20048;-78
2021/12/10 04:59:04;;;;;;;10.27;3.97;;;;;;;2.53;87.70;99179.13;5042207;28;20083;-78
2021/12/10 05:01:29;;;;;;;13.65;4.45;;;;;;;2.54;87.88;99173.16;5039524;28;20029;-78
2021/12/10 05:03:55;;;;;;;14.02;4.70;;;;;;;2.54;87.53;99155.16;5040656;28;20041;-78
2021/12/10 05:06:20;;;;;;;13.85;4.70;;;;;;;2.55;87.83;99154.34;5042084;28;20091;-77
2021/12/10 05:08:45;;;;;;;18.42;5.68;;;;;;;2.57;87.42;99151.81;5040417;28;20029;-77
2021/12/10 05:11:12;;;;;;;13.25;5.13;;;;;;;2.56;87.73;99150.97;5042674;28;20030;-78
2021/12/10 05:13:40;;;;;;;14.95;5.15;;;;;;;2.56;87.14;99134.66;5073977;28;20029;-78
2021/12/10 05:16:07;;;;;;;12.68;4.78;;;;;;;2.57;86.95;99141.53;5037482;28;20044;-78
2021/12/10 05:18:37;;;;;;;13.57;5.85;;;;;;;2.58;87.02;99140.72;5039967;28;20100;-78
2021/12/10 05:21:06;;;;;;;15.98;5.00;;;;;;;2.56;87.26;99140.69;5038718;28;20042;-78
2021/12/10 05:23:31;;;;;;;14.87;4.77;;;;;;;2.56;87.49;99135.53;5041284;28;20087;-78
2021/12/10 05:25:57;;;;;;;13.43;4.72;;;;;;;2.55;87.26;99143.19;5042065;28;20033;-78
2021/12/10 05:28:23;;;;;;;15.45;4.57;;;;;;;2.53;87.42;99130.28;5037753;28;20092;-78
2021/12/10 05:30:54;;;;;;;14.82;4.70;;;;;;;2.54;87.87;99132.03;5042041;28;20223;-78
2021/12/10 05:33:20;;;;;;;15.50;4.90;;;;;;;2.52;87.61;99133.69;5035078;28;20065;-78
2021/12/10 05:35:48;;;;;;;17.35;5.03;;;;;;;2.51;87.42;99126.81;5070760;28;20389;-78
2021/12/10 05:38:17;;;;;;;17.58;4.68;;;;;;;2.52;87.30;99133.69;5041080;28;20033;-78
2021/12/10 05:40:43;;;;;;;16.48;4.47;;;;;;;2.51;87.66;99131.94;5037841;28;20204;-78
2021/12/10 05:43:08;;;;;;;13.45;4.20;;;;;;;2.52;87.35;99122.53;5040900;28;20041;-78
2021/12/10 05:45:33;;;;;;;12.63;4.25;;;;;;;2.52;87.31;99117.38;5041636;28;20291;-77
2021/12/10 05:47:59;;;;;;;14.70;4.57;;;;;;;2.53;87.31;99108.84;5040515;28;20164;-77
2021/12/10 05:50:26;;;;;;;13.43;4.05;;;;;;;2.53;87.58;99108.84;5039193;28;20048;-77
2021/12/10 05:52:52;;;;;;;10.48;3.92;;;;;;;2.53;87.33;99109.72;5072354;28;20031;-77
2021/12/10 05:55:17;;;;;;;15.32;3.65;;;;;;;2.55;87.14;99105.50;5040086;28;20034;-77
2021/12/10 05:57:42;;;;;;;13.20;4.05;;;;;;;2.56;87.43;99106.38;5037933;28;20087;-77
2021/12/10 06:00:14;;;;;;;14.35;3.60;;;;;;;2.56;87.39;99104.69;5041903;28;20072;-77
2021/12/10 06:02:40;;;;;;;13.98;4.65;;;;;;;2.56;87.23;99106.38;5039104;28;20029;-77
2021/12/10 06:05:07;;;;;;;13.55;3.90;;;;;;;2.58;87.28;99107.28;5039760;28;20083;-77
2021/12/10 06:07:33;;;;;;;11.68;3.47;;;;;;;2.58;87.56;99108.16;5041198;28;20046;-77
2021/12/10 06:09:58;;;;;;;12.60;3.40;;;;;;;2.58;86.99;99105.59;5041513;28;20025;-77
2021/12/10 06:12:23;;;;;;;9.98;3.20;;;;;;;2.60;86.28;99098.78;5036168;28;20312;-78
2021/12/10 06:14:49;;;;;;;12.88;3.75;;;;;;;2.62;86.87;99096.25;5073832;28;20044;-77
2021/12/10 06:17:14;;;;;;;9.98;3.40;;;;;;;2.63;86.69;99089.41;5041533;28;20052;-84
2021/12/10 06:19:39;;;;;;;9.52;2.85;;;;;;;2.65;86.24;99095.47;5041797;28;20028;-85
2021/12/10 06:22:05;;;;;;;14.10;3.53;;;;;;;2.66;86.64;99094.63;5038474;28;20210;-84
2021/12/10 06:24:30;;;;;;;10.05;3.42;;;;;;;2.67;86.18;99096.38;5036179;28;20030;-85
2021/12/10 06:26:56;;;;;;;15.07;3.58;;;;;;;2.68;86.60;99088.72;5072144;28;20095;-84
2021/12/10 06:29:24;;;;;;;10.73;3.40;;;;;;;2.67;86.13;99097.25;5038469;28;20143;-85
2021/12/10 06:31:49;;;;;;;15.38;3.60;;;;;;;2.69;86.25;99087.00;5040718;28;20035;-85
2021/12/10 06:34:15;;;;;;;14.40;3.10;;;;;;;2.70;86.64;99091.31;5039864;28;20029;-83
2021/12/10 06:36:40;;;;;;;15.85;3.45;;;;;;;2.69;86.29;99084.44;5041347;28;20056;-83
2021/12/10 06:39:06;;;;;;;10.18;3.22;;;;;;;2.69;86.24;99089.56;5074949;28;20021;-84
2021/12/10 06:41:32;;;;;;;9.38;3.05;;;;;;;2.70;86.35;99086.19;5076648;28;20041;-84
2021/12/10 06:43:58;;;;;;;14.23;4.07;;;;;;;2.70;86.21;99086.19;5043469;28;20045;-86
2021/12/10 06:46:23;;;;;;;12.75;3.33;;;;;;;2.70;86.00;99086.19;5044975;28;20050;-84
2021/12/10 06:48:48;;;;;;;12.13;3.03;;;;;;;2.71;86.02;99088.78;5044784;28;20029;-84
2021/12/10 06:51:19;;;;;;;11.32;2.97;;;;;;;2.72;85.95;99085.41;5043311;28;20029;-84
2021/12/10 06:53:45;;;;;;;15.77;3.88;;;;;;;2.74;85.83;99093.16;5043561;28;20036;-84
2021/12/10 06:56:13;;;;;;;16.15;3.33;;;;;;;2.74;85.96;99091.44;5044442;28;20021;-83
2021/12/10 06:58:39;;;;;;;13.20;3.90;;;;;;;2.75;86.00;99094.88;5044368;28;20025;-85
2021/12/10 07:01:24;;;;;;;14.43;3.65;;;;;;;2.75;86.36;99098.34;5041758;28;20248;-85
2021/12/10 07:03:52;;;;;;;11.70;3.58;;;;;;;2.78;85.71;99106.13;5041177;28;20231;-84
2021/12/10 07:06:18;;;;;;;10.50;3.13;;;;;;;2.77;85.59;99098.38;5044554;28;20064;-85
2021/12/10 07:08:45;;;;;;;13.77;3.50;;;;;;;2.79;86.18;99106.97;5044813;28;20371;-84
2021/12/10 07:11:14;;;;;;;12.77;3.28;;;;;;;2.79;86.04;99094.13;5044824;28;20092;-84
2021/12/10 07:13:41;;;;;;;11.10;3.58;;;;;;;2.80;85.67;99098.44;5037852;28;20030;-85
2021/12/10 07:16:07;;;;;;;7.78;3.00;;;;;;;2.80;85.52;99098.44;5044429;28;20036;-85
2021/12/10 07:18:33;;;;;;;9.35;3.42;;;;;;;2.81;85.25;99095.06;5042999;28;20048;-77
2021/12/10 07:20:58;;;;;;;11.35;3.10;;;;;;;2.80;85.69;99098.44;5044007;28;20045;-77
2021/12/10 07:23:24;;;;;;;10.93;3.25;;;;;;;2.81;85.24;99095.06;5042511;28;20036;-77
2021/12/10 07:25:50;;;;;;;13.45;3.40;;;;;;;2.81;85.85;99094.16;5043391;28;20372;-77
2021/12/10 07:28:17;;;;;;;14.07;3.60;;;;;;;2.81;85.32;99089.03;5043236;28;20044;-77
2021/12/10 07:30:42;;;;;;;11.80;3.30;;;;;;;2.81;86.13;99092.47;5043688;28;20190;-77
2021/12/10 07:33:08;;;;;;;14.35;3.42;;;;;;;2.82;85.28;99093.34;5043860;28;20276;-77
2021/12/10 07:35:35;;;;;;;13.27;3.63;;;;;;;2.82;85.66;99091.63;5042822;28;20028;-77
2021/12/10 07:38:00;;;;;;;10.35;3.10;;;;;;;2.81;85.39;99094.16;5042799;28;20042;-77
2021/12/10 07:40:30;;;;;;;13.95;3.38;;;;;;;2.82;85.73;99086.50;5043585;28;20227;-77
2021/12/10 07:42:56;;;;;;;11.32;3.63;;;;;;;2.81;85.56;99087.34;5075931;28;20278;-77
2021/12/10 07:45:23;;;;;;;10.13;3.42;;;;;;;2.82;86.00;99078.78;5043116;28;20049;-77
2021/12/10 07:47:52;;;;;;;10.98;3.40;;;;;;;2.83;85.64;99082.22;5041219;28;20053;-77
2021/12/10 07:50:23;;;;;;;13.52;3.75;;;;;;;2.84;85.84;99083.94;5039624;28;20028;-77
2021/12/10 07:52:50;;;;;;;10.45;3.63;;;;;;;2.85;85.42;99085.69;5043289;28;20037;-77
2021/12/10 07:55:16;;;;;;;16.45;3.45;;;;;;;2.85;85.60;99085.69;5043855;28;20017;-77
2021/12/10 07:57:42;;;;;;;8.75;3.20;;;;;;;2.87;85.65;99089.16;5041803;28;20199;-77
2021/12/10 08:00:11;;;;;;;10.25;2.92;;;;;;;2.87;85.67;99094.31;5037281;28;20111;-77
2021/12/10 08:02:36;;;;;;;14.88;3.15;;;;;;;2.88;85.53;99102.09;5043542;28;20045;-77
2021/12/10 08:05:02;;;;;;;13.77;3.90;;;;;;;2.89;85.32;99103.81;5037722;28;20204;-77
2021/12/10 08:07:28;;;;;;;10.98;3.00;;;;;;;2.89;85.65;99101.25;5043071;28;20075;-77
2021/12/10 08:09:53;;;;;;;12.15;3.35;;;;;;;2.91;85.50;99097.03;5042405;28;20033;-77
2021/12/10 08:12:19;;;;;;;12.90;3.13;;;;;;;2.92;85.70;99097.88;5034433;28;20092;-77
2021/12/10 08:14:46;;;;;;;14.45;3.50;;;;;;;2.92;85.38;99093.59;5041408;28;20140;-77
2021/12/10 08:17:12;;;;;;;10.77;3.40;;;;;;;2.94;85.67;99097.09;5041744;28;20104;-77
2021/12/10 08:19:37;;;;;;;9.20;3.20;;;;;;;2.95;85.24;99097.97;5043116;28;20175;-77
2021/12/10 08:22:03;;;;;;;11.25;3.40;;;;;;;2.97;85.11;99101.47;5041196;28;20057;-77
2021/12/10 08:24:28;;;;;;;11.77;3.30;;;;;;;2.96;85.21;99100.56;5040811;28;20025;-77
2021/12/10 08:26:54;;;;;;;9.30;3.20;;;;;;;2.98;84.39;99103.19;5043896;28;20021;-77
2021/12/10 08:29:21;;;;;;;14.05;3.50;;;;;;;3.00;84.06;99108.38;5042666;28;20021;-77
2021/12/10 08:31:47;;;;;;;11.00;3.50;;;;;;;3.01;85.09;99104.97;5042623;28;20037;-77
2021/12/10 08:34:13;;;;;;;12.40;3.42;;;;;;;3.03;84.52;99098.19;5038306;28;20022;-77
2021/12/10 08:36:39;;;;;;;12.80;3.90;;;;;;;3.02;84.68;99099.88;5043182;28;20287;-77
2021/12/10 08:39:07;;;;;;;12.40;3.80;;;;;;;3.03;84.45;99095.63;5074236;28;20088;-77
2021/12/10 08:41:34;;;;;;;14.98;4.28;;;;;;;3.05;84.24;99105.09;5041950;28;20040;-76
2021/12/10 08:44:00;;;;;;;7.82;3.38;;;;;;;3.06;84.59;99106.84;5042799;28;20072;-77
2021/12/10 08:46:28;;;;;;;11.70;3.60;;;;;;;3.07;84.83;99107.69;5071575;28;20025;-77
2021/12/10 08:48:53;;;;;;;11.75;4.32;;;;;;;3.08;84.50;99104.31;5073898;28;20053;-77
2021/12/10 08:51:26;;;;;;;12.00;3.85;;;;;;;3.09;84.63;99108.63;5042185;28;20371;-77
2021/12/10 08:53:52;;;;;;;13.43;4.35;;;;;;;3.09;84.58;99104.34;5042853;28;20061;-77
2021/12/10 08:56:18;;;;;;;9.43;3.85;;;;;;;3.12;84.57;99106.13;5041981;28;20043;-77
2021/12/10 08:58:44;;;;;;;11.20;4.00;;;;;;;3.13;85.35;99106.16;5038948;28;20041;-77
2021/12/10 09:01:14;;;;;;;13.45;4.30;;;;;;;3.13;84.95;99102.72;5040103;28;20054;-78
2021/12/10 09:03:41;;;;;;;15.00;7.00;;;;;;;3.14;85.50;99096.72;5036511;28;20320;-66
2021/12/10 09:06:08;;;;;;;11.70;4.18;;;;;;;3.16;84.06;99096.75;5038173;28;20037;-65
2021/12/10 09:08:33;;;;;;;11.48;4.10;;;;;;;3.16;85.73;99105.38;5073525;28;20025;-66
2021/12/10 09:11:00;;;;;;;14.48;4.45;;;;;;;3.17;85.64;99107.09;5042287;28;20096;-66
2021/12/10 09:13:25;;;;;;;16.20;4.70;;;;;;;3.20;85.55;99116.59;5042518;28;20055;-66
2021/12/10 09:15:56;;;;;;;14.13;4.95;;;;;;;3.21;85.58;99111.50;5037022;28;20033;-65
2021/12/10 09:18:22;;;;;;;14.65;4.85;;;;;;;3.22;85.29;99114.97;5035252;28;20280;-66
2021/12/10 09:20:53;;;;;;;16.15;5.57;;;;;;;3.23;85.62;99112.41;5041896;28;20033;-66
2021/12/10 09:23:22;;;;;;;15.50;5.35;;;;;;;3.27;85.64;99119.38;5033846;28;20044;-65
2021/12/10 09:25:49;;;;;;;17.70;5.32;;;;;;;3.29;84.62;99122.00;5039725;28;20025;-66
2021/12/10 09:28:14;;;;;;;18.98;5.38;;;;;;;3.29;85.19;99122.84;5042025;28;20049;-66
2021/12/10 09:30:45;;;;;;;16.02;5.43;;;;;;;3.30;85.19;99122.03;5041714;28;20105;-65
2021/12/10 09:33:11;;;;;;;18.70;5.53;;;;;;;3.32;84.57;99114.34;5042091;28;20289;-66
2021/12/10 09:35:37;;;;;;;20.20;6.07;;;;;;;3.32;85.01;99119.50;5041379;28;20239;-66
2021/12/10 09:38:04;;;;;;;20.23;5.55;;;;;;;3.34;84.93;99122.09;5033430;28;20026;-66
2021/12/10 09:40:34;;;;;;;15.25;5.43;;;;;;;3.35;84.46;99124.72;5041422;28;20295;-65
2021/12/10 09:43:02;;;;;;;18.55;5.57;;;;;;;3.38;84.32;99123.94;5042289;28;20026;-65
2021/12/10 09:45:31;;;;;;;18.25;5.65;;;;;;;3.38;84.95;99124.78;5041843;28;20314;-65
2021/12/10 09:47:57;;;;;;;17.08;5.22;;;;;;;3.40;84.37;99122.25;5041075;28;20035;-66
2021/12/10 09:50:28;;;;;;;18.20;5.70;;;;;;;3.40;84.80;99125.69;5039604;28;20248;-66
2021/12/10 09:52:54;;;;;;;17.88;5.45;;;;;;;3.42;84.92;99120.59;5042245;28;20067;-66
2021/12/10 09:55:20;;;;;;;18.67;5.80;;;;;;;3.43;84.78;99128.34;5038144;28;20029;-65
2021/12/10 09:57:48;;;;;;;13.82;5.85;;;;;;;3.44;84.62;99124.94;5031203;28;20035;-66
2021/12/10 10:00:22;;;;;;;20.40;6.43;;;;;;;3.45;84.61;99118.09;5029564;28;20041;-74
2021/12/10 10:02:48;;;;;;;13.43;6.03;;;;;;;3.48;83.83;99124.19;5037862;28;20105;-75
2021/12/10 10:05:14;;;;;;;15.65;5.50;;;;;;;3.50;83.75;99128.50;5034137;28;20033;-74
2021/12/10 10:07:39;;;;;;;15.02;5.80;;;;;;;3.50;83.62;99121.63;5039300;28;20087;-74
2021/12/10 10:10:14;;;;;;;14.60;5.57;;;;;;;3.51;83.52;99130.25;5038187;28;20355;-74
2021/12/10 10:12:43;;;;;;;16.85;6.35;;;;;;;3.52;83.85;99129.41;5039267;28;20041;-74
2021/12/10 10:15:17;;;;;;;18.92;6.40;;;;;;;3.54;84.29;99131.19;5041617;28;20025;-74
2021/12/10 10:17:42;;;;;;;13.48;5.20;;;;;;;3.56;83.54;99134.66;5042018;28;20057;-74
2021/12/10 10:20:10;;;;;;;17.00;5.72;;;;;;;3.57;83.96;99132.97;5040558;28;20029;-74
2021/12/10 10:22:36;;;;;;;14.93;6.63;;;;;;;3.58;83.83;99130.41;5037961;28;20025;-74
2021/12/10 10:25:07;;;;;;;16.42;5.32;;;;;;;3.59;83.86;99129.59;5073459;28;20017;-74
2021/12/10 10:27:33;;;;;;;17.25;5.80;;;;;;;3.60;84.11;99131.31;5043339;28;20183;-74
2021/12/10 10:30:05;;;;;;;25.90;6.60;;;;;;;3.64;83.80;99133.13;5036412;28;20021;-74
2021/12/10 10:32:32;;;;;;;16.65;5.25;;;;;;;3.64;83.70;99133.13;5043503;28;20021;-74
2021/12/10 10:35:02;;;;;;;14.63;5.32;;;;;;;3.67;83.95;99131.50;5042904;28;20311;-74
2021/12/10 10:37:32;;;;;;;13.63;5.60;;;;;;;3.68;83.86;99136.66;5045504;28;20025;-74
2021/12/10 10:39:58;;;;;;;20.63;8.15;;;;;;;3.70;83.30;99141.84;5038687;28;20041;-74
2021/12/10 10:42:26;;;;;;;18.00;6.95;;;;;;;3.70;83.43;99132.41;5072217;28;20025;-74
2021/12/10 10:44:53;;;;;;;14.85;5.90;;;;;;;3.70;83.21;99132.41;5038175;28;20080;-74
2021/12/10 10:47:22;;;;;;;52.35;19.75;;;;;;;3.72;83.04;99133.34;5042626;28;20112;-74
2021/12/10 10:49:59;;;;;;;39.35;13.15;;;;;;;3.73;84.03;99136.78;5042160;28;20056;-74
2021/12/10 10:52:30;;;;;;;19.08;7.95;;;;;;;3.74;83.32;99130.78;5042886;28;20021;-74
2021/12/10 10:55:10;;;;;;;17.92;6.15;;;;;;;3.74;83.55;99123.06;5038310;28;20039;-74
2021/12/10 10:57:39;;;;;;;15.95;6.45;;;;;;;3.75;82.27;99137.66;5042446;28;20057;-74
2021/12/10 11:00:20;;;;;;;25.73;11.95;;;;;;;3.77;83.48;99138.59;5042264;28;20161;-74
2021/12/10 11:02:50;;;;;;;22.25;9.10;;;;;;;3.77;82.76;99138.59;5043629;28;20208;-74
2021/12/10 11:05:17;;;;;;;16.27;5.68;;;;;;;3.77;82.97;99139.44;5041361;28;20049;-74
2021/12/10 11:07:55;;;;;;;12.73;5.28;;;;;;;3.77;81.84;99138.59;5039157;28;20045;-74
2021/12/10 11:10:33;;;;;;;15.10;6.80;;;;;;;3.80;83.12;99146.38;5044772;28;20088;-74
2021/12/10 11:13:31;;;;;;;14.23;5.95;;;;;;;3.81;83.48;99146.41;5037108;28;20041;-74
2021/12/10 11:16:04;;;;;;;13.98;5.10;;;;;;;3.81;81.88;99155.88;5008057;28;20029;-74
2021/12/10 11:18:42;;;;;;;16.30;5.50;;;;;;;3.81;82.56;99149.00;5039646;28;20052;-74
2021/12/10 11:21:07;;;;;;;16.02;8.50;;;;;;;3.81;83.54;99145.56;5043296;28;20023;-74
2021/12/10 11:23:33;;;;;;;17.00;6.22;;;;;;;3.84;83.47;99155.94;5039765;28;20168;-74
2021/12/10 11:26:00;;;;;;;16.70;5.70;;;;;;;3.84;82.94;99155.94;5043924;28;20303;-74
2021/12/10 11:28:31;;;;;;;16.60;5.65;;;;;;;3.85;82.34;99152.50;5044315;28;20044;-78
2021/12/10 11:31:04;;;;;;;17.25;6.03;;;;;;;3.86;82.92;99156.81;5038308;28;20100;-78
2021/12/10 11:33:39;;;;;;;12.43;4.40;;;;;;;3.87;82.80;99150.84;5044254;28;20044;-78
2021/12/10 11:36:09;;;;;;;12.25;5.07;;;;;;;3.88;82.78;99152.59;5042269;28;20252;-78
2021/12/10 11:38:36;;;;;;;15.55;5.18;;;;;;;3.89;81.87;99148.31;5042991;28;20029;-78
2021/12/10 11:41:15;;;;;;;13.93;5.10;;;;;;;3.89;82.17;99156.88;5043563;28;20032;-78
2021/12/10 11:44:21;;;;;;;12.48;4.53;;;;;;;3.89;81.51;99156.88;5042621;28;20037;-77
2021/12/10 11:47:25;;;;;;;20.15;5.72;;;;;;;3.88;82.67;99162.91;5044145;28;20291;-78
2021/12/10 11:49:47;;;;;;;11.77;4.65;;;;;;;3.87;81.97;99162.84;5043506;28;20043;-78